首页
METAR-TAF:

METAR-TAF

机场 :

Sachs Harbour, 西北特區, 加拿大

纬度: 72-00N, 经度: 125-17W, 海拔: 86米

当前天气观测

该预报发布于12小时和18分钟前的23:00 UTC
风速4节,风向西南
温度 9°C
湿度 100%
气压 1013 hPa
能見度: 24.1公里
散云层高于500英尺
多云层高于4000英尺

METAR: CYSY 312300Z 22004KT 15SM SCT005 BKN040 09/09 A2992 RMK ST4SC3 LAST STFD OBS/N

时间: 05:18 (11:18 UTC)

预报

该预报发布于16小时和35分钟前的18:43 UTC
预报有效从31日的 19点(UTC)到 31日的 23点(UTC)
风速8节,风向
能見度: 10公里
少量云层高于600英尺
阴天层高于5000英尺
短暂存在
从 31日的 19点(UTC)到 31日的 21点(UTC)
能見度: 8.0公里
散云层高于600英尺
阴天层高于5000英尺
小雨, 轻雾
几率 40%
从 31日的 19点(UTC)到 31日的 21点(UTC)
能見度: 3.2公里
多云层高于600英尺
小毛毛雨, 轻雾
从 31日的 2100点(UTC)
风速10节,风向
能見度: 10公里
少量云层高于800英尺
阴天层高于4000英尺
短暂存在
从 31日的 21点(UTC)到 31日的 23点(UTC)
少量云层高于600英尺
阴天层高于2000英尺

TAF: CYSY 311843Z 3119/3123 36008KT P6SM FEW006 OVC050 TEMPO 3119/3121 5SM -RA BR SCT006 OVC050 PROB40 3119/3121 2SM -DZ BR BKN006 FM312100 35010KT P6SM FEW008 OVC040 TEMPO 3121/3123 FEW006 OVC020 RMK NXT FCST WILL BE ISSUED AT 011445Z

超过4000个机场的气象观测和天气预报(METAR&TAF报告)。

可查询的气象台以黄色和红色小点在地图上表示。

将鼠标移到小点上方,可查看气象台名称。

然后点击查看天气观测和预报。

如需切换地图:点击带黑十字的绿色按钮放大地图;点击带横线的绿色按钮缩小地图;或者点击绿色箭头查看邻近地区的地图。


METAR-TAF: